sensor_id;sensor_type;location;lat;lon;timestamp;P1;durP1;ratioP1;P2;durP2;ratioP2
52360;SDS011;38294;42.966;1.608;2023-02-13T04:06:31;12.98;;;6.72;;
52360;SDS011;38294;42.966;1.608;2023-02-13T04:09:03;13.43;;;6.38;;
52360;SDS011;38294;42.966;1.608;2023-02-13T04:14:01;10.93;;;5.45;;
52360;SDS011;38294;42.966;1.608;2023-02-13T04:16:37;10.93;;;6.03;;
52360;SDS011;38294;42.966;1.608;2023-02-13T04:19:06;11.35;;;5.82;;
52360;SDS011;38294;42.966;1.608;2023-02-13T04:21:35;8.18;;;4.90;;
52360;SDS011;38294;42.966;1.608;2023-02-13T04:24:04;10.18;;;5.72;;
52360;SDS011;38294;42.966;1.608;2023-02-13T04:26:40;11.45;;;6.03;;
52360;SDS011;38294;42.966;1.608;2023-02-13T04:29:07;9.30;;;5.50;;
52360;SDS011;38294;42.966;1.608;2023-02-13T04:31:34;12.98;;;5.45;;
52360;SDS011;38294;42.966;1.608;2023-02-13T04:33:59;9.90;;;5.32;;
52360;SDS011;38294;42.966;1.608;2023-02-13T04:36:25;14.18;;;6.03;;
52360;SDS011;38294;42.966;1.608;2023-02-13T04:38:51;10.75;;;5.60;;
52360;SDS011;38294;42.966;1.608;2023-02-13T04:41:16;8.82;;;5.22;;
52360;SDS011;38294;42.966;1.608;2023-02-13T04:43:42;11.75;;;5.18;;
52360;SDS011;38294;42.966;1.608;2023-02-13T04:46:09;12.45;;;6.40;;
52360;SDS011;38294;42.966;1.608;2023-02-13T04:48:34;11.13;;;5.53;;
52360;SDS011;38294;42.966;1.608;2023-02-13T04:51:00;10.18;;;5.63;;
52360;SDS011;38294;42.966;1.608;2023-02-13T04:53:25;10.90;;;5.20;;
52360;SDS011;38294;42.966;1.608;2023-02-13T04:55:51;9.02;;;5.30;;
52360;SDS011;38294;42.966;1.608;2023-02-13T04:58:17;10.88;;;5.72;;
52360;SDS011;38294;42.966;1.608;2023-02-13T05:00:42;11.23;;;5.85;;
52360;SDS011;38294;42.966;1.608;2023-02-13T05:03:09;9.88;;;5.28;;
52360;SDS011;38294;42.966;1.608;2023-02-13T05:05:36;10.85;;;5.95;;
52360;SDS011;38294;42.966;1.608;2023-02-13T05:08:03;10.85;;;5.90;;
52360;SDS011;38294;42.966;1.608;2023-02-13T05:10:29;11.77;;;5.95;;
52360;SDS011;38294;42.966;1.608;2023-02-13T05:12:54;13.48;;;5.43;;
52360;SDS011;38294;42.966;1.608;2023-02-13T05:15:20;8.93;;;5.55;;
52360;SDS011;38294;42.966;1.608;2023-02-13T05:17:47;8.65;;;5.30;;
52360;SDS011;38294;42.966;1.608;2023-02-13T05:20:13;9.20;;;5.68;;
52360;SDS011;38294;42.966;1.608;2023-02-13T05:22:46;12.30;;;5.88;;
52360;SDS011;38294;42.966;1.608;2023-02-13T05:25:31;10.20;;;5.90;;
52360;SDS011;38294;42.966;1.608;2023-02-13T05:27:58;10.95;;;5.40;;
52360;SDS011;38294;42.966;1.608;2023-02-13T05:30:23;8.93;;;5.80;;
52360;SDS011;38294;42.966;1.608;2023-02-13T05:32:49;10.35;;;5.88;;
52360;SDS011;38294;42.966;1.608;2023-02-13T05:35:16;8.20;;;5.45;;
52360;SDS011;38294;42.966;1.608;2023-02-13T05:37:43;9.65;;;5.68;;
52360;SDS011;38294;42.966;1.608;2023-02-13T05:40:10;11.55;;;5.57;;
52360;SDS011;38294;42.966;1.608;2023-02-13T05:42:37;12.35;;;6.38;;
52360;SDS011;38294;42.966;1.608;2023-02-13T05:45:03;16.27;;;6.07;;
52360;SDS011;38294;42.966;1.608;2023-02-13T05:47:29;10.65;;;5.68;;
52360;SDS011;38294;42.966;1.608;2023-02-13T05:49:54;11.70;;;4.95;;
52360;SDS011;38294;42.966;1.608;2023-02-13T05:52:20;11.15;;;6.15;;
52360;SDS011;38294;42.966;1.608;2023-02-13T05:54:45;9.77;;;5.55;;
52360;SDS011;38294;42.966;1.608;2023-02-13T05:57:11;12.32;;;5.82;;
52360;SDS011;38294;42.966;1.608;2023-02-13T05:59:36;11.23;;;6.05;;
52360;SDS011;38294;42.966;1.608;2023-02-13T06:02:02;8.27;;;5.55;;
52360;SDS011;38294;42.966;1.608;2023-02-13T06:04:28;10.40;;;5.53;;
52360;SDS011;38294;42.966;1.608;2023-02-13T06:06:53;10.32;;;5.57;;
52360;SDS011;38294;42.966;1.608;2023-02-13T06:09:19;14.25;;;5.93;;
52360;SDS011;38294;42.966;1.608;2023-02-13T06:11:44;12.30;;;5.80;;
52360;SDS011;38294;42.966;1.608;2023-02-13T06:14:10;14.18;;;6.13;;
52360;SDS011;38294;42.966;1.608;2023-02-13T06:16:36;15.93;;;6.68;;
52360;SDS011;38294;42.966;1.608;2023-02-13T06:19:01;14.50;;;6.05;;
52360;SDS011;38294;42.966;1.608;2023-02-13T06:21:27;11.82;;;6.03;;
52360;SDS011;38294;42.966;1.608;2023-02-13T06:23:52;15.70;;;6.45;;
52360;SDS011;38294;42.966;1.608;2023-02-13T06:26:18;10.05;;;6.10;;
52360;SDS011;38294;42.966;1.608;2023-02-13T06:28:44;11.30;;;6.75;;
52360;SDS011;38294;42.966;1.608;2023-02-13T06:31:09;17.40;;;7.25;;
52360;SDS011;38294;42.966;1.608;2023-02-13T06:33:35;11.77;;;6.45;;
52360;SDS011;38294;42.966;1.608;2023-02-13T06:36:00;15.02;;;7.25;;
52360;SDS011;38294;42.966;1.608;2023-02-13T06:38:26;13.80;;;5.68;;
52360;SDS011;38294;42.966;1.608;2023-02-13T06:40:51;12.57;;;6.20;;
52360;SDS011;38294;42.966;1.608;2023-02-13T06:43:17;11.23;;;5.93;;
52360;SDS011;38294;42.966;1.608;2023-02-13T06:45:43;10.43;;;5.25;;
52360;SDS011;38294;42.966;1.608;2023-02-13T06:48:11;11.00;;;5.78;;
52360;SDS011;38294;42.966;1.608;2023-02-13T06:50:38;17.88;;;6.00;;
52360;SDS011;38294;42.966;1.608;2023-02-13T06:53:03;10.70;;;5.93;;
52360;SDS011;38294;42.966;1.608;2023-02-13T06:55:29;11.25;;;6.40;;
52360;SDS011;38294;42.966;1.608;2023-02-13T06:57:54;12.65;;;6.25;;
52360;SDS011;38294;42.966;1.608;2023-02-13T07:00:20;9.35;;;5.45;;
52360;SDS011;38294;42.966;1.608;2023-02-13T07:02:46;9.48;;;5.90;;
52360;SDS011;38294;42.966;1.608;2023-02-13T07:05:12;13.98;;;6.47;;
52360;SDS011;38294;42.966;1.608;2023-02-13T07:07:39;12.80;;;6.40;;
52360;SDS011;38294;42.966;1.608;2023-02-13T07:10:06;11.60;;;6.13;;
52360;SDS011;38294;42.966;1.608;2023-02-13T07:12:35;13.77;;;6.35;;
52360;SDS011;38294;42.966;1.608;2023-02-13T07:15:01;13.68;;;7.00;;
52360;SDS011;38294;42.966;1.608;2023-02-13T07:17:28;13.85;;;7.20;;
52360;SDS011;38294;42.966;1.608;2023-02-13T07:19:54;12.57;;;6.85;;
52360;SDS011;38294;42.966;1.608;2023-02-13T07:22:19;15.15;;;7.35;;
52360;SDS011;38294;42.966;1.608;2023-02-13T07:24:45;13.57;;;6.30;;
52360;SDS011;38294;42.966;1.608;2023-02-13T07:27:10;13.35;;;6.65;;
52360;SDS011;38294;42.966;1.608;2023-02-13T07:29:36;25.13;;;7.25;;
52360;SDS011;38294;42.966;1.608;2023-02-13T07:32:01;10.88;;;6.38;;
52360;SDS011;38294;42.966;1.608;2023-02-13T07:34:27;14.93;;;6.50;;
52360;SDS011;38294;42.966;1.608;2023-02-13T07:36:52;12.20;;;6.68;;
52360;SDS011;38294;42.966;1.608;2023-02-13T07:39:18;12.30;;;6.25;;
52360;SDS011;38294;42.966;1.608;2023-02-13T07:41:43;11.10;;;5.78;;
52360;SDS011;38294;42.966;1.608;2023-02-13T07:44:09;11.82;;;5.28;;
52360;SDS011;38294;42.966;1.608;2023-02-13T07:46:35;11.75;;;5.80;;
52360;SDS011;38294;42.966;1.608;2023-02-13T07:49:01;13.30;;;6.47;;
52360;SDS011;38294;42.966;1.608;2023-02-13T07:51:28;11.68;;;6.55;;
52360;SDS011;38294;42.966;1.608;2023-02-13T07:53:54;28.63;;;8.07;;
52360;SDS011;38294;42.966;1.608;2023-02-13T07:56:20;9.57;;;5.32;;
52360;SDS011;38294;42.966;1.608;2023-02-13T07:58:46;8.20;;;4.57;;
52360;SDS011;38294;42.966;1.608;2023-02-13T08:01:12;11.50;;;5.47;;
52360;SDS011;38294;42.966;1.608;2023-02-13T08:03:39;11.63;;;5.15;;
52360;SDS011;38294;42.966;1.608;2023-02-13T08:06:05;11.63;;;5.28;;
52360;SDS011;38294;42.966;1.608;2023-02-13T08:08:31;11.73;;;4.82;;
52360;SDS011;38294;42.966;1.608;2023-02-13T08:10:56;9.90;;;5.22;;
52360;SDS011;38294;42.966;1.608;2023-02-13T08:13:47;14.37;;;6.20;;
52360;SDS011;38294;42.966;1.608;2023-02-13T08:16:13;18.58;;;6.65;;
52360;SDS011;38294;42.966;1.608;2023-02-13T08:18:38;13.68;;;6.18;;
52360;SDS011;38294;42.966;1.608;2023-02-13T08:21:04;13.07;;;7.05;;
52360;SDS011;38294;42.966;1.608;2023-02-13T08:23:30;15.23;;;7.43;;
52360;SDS011;38294;42.966;1.608;2023-02-13T08:25:58;13.98;;;6.43;;
52360;SDS011;38294;42.966;1.608;2023-02-13T08:28:25;12.30;;;5.60;;
52360;SDS011;38294;42.966;1.608;2023-02-13T08:30:50;15.02;;;6.82;;
52360;SDS011;38294;42.966;1.608;2023-02-13T08:33:16;18.60;;;6.78;;
52360;SDS011;38294;42.966;1.608;2023-02-13T08:35:41;11.43;;;7.13;;
52360;SDS011;38294;42.966;1.608;2023-02-13T08:38:08;9.95;;;5.53;;
52360;SDS011;38294;42.966;1.608;2023-02-13T08:40:33;12.02;;;4.85;;
52360;SDS011;38294;42.966;1.608;2023-02-13T08:43:00;7.00;;;3.95;;
52360;SDS011;38294;42.966;1.608;2023-02-13T08:45:26;5.63;;;3.47;;
52360;SDS011;38294;42.966;1.608;2023-02-13T08:47:54;9.18;;;3.78;;
52360;SDS011;38294;42.966;1.608;2023-02-13T08:50:21;7.10;;;3.97;;
52360;SDS011;38294;42.966;1.608;2023-02-13T08:52:47;9.32;;;4.13;;
52360;SDS011;38294;42.966;1.608;2023-02-13T08:55:13;7.03;;;3.70;;
52360;SDS011;38294;42.966;1.608;2023-02-13T08:57:42;8.20;;;3.78;;
52360;SDS011;38294;42.966;1.608;2023-02-13T09:00:07;10.43;;;4.97;;
52360;SDS011;38294;42.966;1.608;2023-02-13T09:02:33;7.43;;;4.13;;
52360;SDS011;38294;42.966;1.608;2023-02-13T09:04:59;11.15;;;4.15;;
52360;SDS011;38294;42.966;1.608;2023-02-13T09:07:25;9.27;;;4.85;;
52360;SDS011;38294;42.966;1.608;2023-02-13T09:09:50;6.45;;;3.90;;
52360;SDS011;38294;42.966;1.608;2023-02-13T09:12:16;6.22;;;4.38;;
52360;SDS011;38294;42.966;1.608;2023-02-13T09:14:42;12.65;;;4.65;;
52360;SDS011;38294;42.966;1.608;2023-02-13T09:17:07;10.95;;;4.97;;
52360;SDS011;38294;42.966;1.608;2023-02-13T09:19:33;9.60;;;4.95;;
52360;SDS011;38294;42.966;1.608;2023-02-13T09:21:58;10.10;;;4.85;;
52360;SDS011;38294;42.966;1.608;2023-02-13T09:24:24;12.27;;;5.03;;
52360;SDS011;38294;42.966;1.608;2023-02-13T09:26:50;10.93;;;5.47;;
52360;SDS011;38294;42.966;1.608;2023-02-13T09:29:15;7.95;;;5.25;;
52360;SDS011;38294;42.966;1.608;2023-02-13T09:31:41;11.07;;;5.75;;
52360;SDS011;38294;42.966;1.608;2023-02-13T09:34:07;7.93;;;5.10;;
52360;SDS011;38294;42.966;1.608;2023-02-13T09:36:33;8.95;;;4.68;;
52360;SDS011;38294;42.966;1.608;2023-02-13T09:39:00;10.52;;;5.50;;
52360;SDS011;38294;42.966;1.608;2023-02-13T09:41:35;8.00;;;4.60;;
52360;SDS011;38294;42.966;1.608;2023-02-13T09:46:37;11.10;;;3.70;;
52360;SDS011;38294;42.966;1.608;2023-02-13T09:49:10;7.30;;;4.30;;
52360;SDS011;38294;42.966;1.608;2023-02-13T09:51:41;10.85;;;3.50;;
52360;SDS011;38294;42.966;1.608;2023-02-13T09:54:12;8.82;;;3.90;;
52360;SDS011;38294;42.966;1.608;2023-02-13T09:56:51;17.30;;;4.50;;
52360;SDS011;38294;42.966;1.608;2023-02-13T10:18:04;10.07;;;3.80;;
52360;SDS011;38294;42.966;1.608;2023-02-13T10:20:40;8.40;;;3.88;;
52360;SDS011;38294;42.966;1.608;2023-02-13T10:23:17;5.85;;;3.08;;
52360;SDS011;38294;42.966;1.608;2023-02-13T10:25:57;4.45;;;2.70;;
52360;SDS011;38294;42.966;1.608;2023-02-13T10:30:55;5.28;;;3.10;;
52360;SDS011;38294;42.966;1.608;2023-02-13T10:33:38;5.65;;;2.88;;
52360;SDS011;38294;42.966;1.608;2023-02-13T10:36:26;5.35;;;3.10;;
52360;SDS011;38294;42.966;1.608;2023-02-13T10:39:08;4.97;;;2.55;;
52360;SDS011;38294;42.966;1.608;2023-02-13T10:47:06;5.55;;;2.85;;
52360;SDS011;38294;42.966;1.608;2023-02-13T10:50:16;7.35;;;2.58;;
52360;SDS011;38294;42.966;1.608;2023-02-13T10:55:25;7.10;;;2.88;;
52360;SDS011;38294;42.966;1.608;2023-02-13T10:58:11;6.20;;;3.22;;
52360;SDS011;38294;42.966;1.608;2023-02-13T11:00:45;7.18;;;3.40;;
52360;SDS011;38294;42.966;1.608;2023-02-13T11:03:32;6.57;;;3.50;;
52360;SDS011;38294;42.966;1.608;2023-02-13T11:05:58;10.48;;;4.03;;
52360;SDS011;38294;42.966;1.608;2023-02-13T11:08:33;6.60;;;3.78;;
52360;SDS011;38294;42.966;1.608;2023-02-13T11:11:03;6.35;;;4.00;;
52360;SDS011;38294;42.966;1.608;2023-02-13T11:19:12;5.30;;;3.08;;
52360;SDS011;38294;42.966;1.608;2023-02-13T11:21:42;7.53;;;3.42;;
52360;SDS011;38294;42.966;1.608;2023-02-13T11:24:16;8.68;;;3.92;;
52360;SDS011;38294;42.966;1.608;2023-02-13T11:27:06;9.02;;;3.60;;
52360;SDS011;38294;42.966;1.608;2023-02-13T11:29:37;5.55;;;3.58;;
52360;SDS011;38294;42.966;1.608;2023-02-13T11:32:28;6.95;;;3.63;;
52360;SDS011;38294;42.966;1.608;2023-02-13T11:34:54;5.20;;;3.47;;
52360;SDS011;38294;42.966;1.608;2023-02-13T11:37:22;5.53;;;3.55;;
52360;SDS011;38294;42.966;1.608;2023-02-13T11:39:53;6.38;;;3.60;;
52360;SDS011;38294;42.966;1.608;2023-02-13T11:42:23;8.52;;;4.00;;
52360;SDS011;38294;42.966;1.608;2023-02-13T11:45:03;6.10;;;3.67;;
52360;SDS011;38294;42.966;1.608;2023-02-13T11:50:06;7.75;;;3.97;;
52360;SDS011;38294;42.966;1.608;2023-02-13T11:53:08;6.63;;;3.60;;
52360;SDS011;38294;42.966;1.608;2023-02-13T11:55:59;6.53;;;3.75;;
52360;SDS011;38294;42.966;1.608;2023-02-13T11:58:39;6.78;;;3.90;;
52360;SDS011;38294;42.966;1.608;2023-02-13T12:01:24;6.18;;;4.15;;
52360;SDS011;38294;42.966;1.608;2023-02-13T12:04:02;7.53;;;4.03;;
52360;SDS011;38294;42.966;1.608;2023-02-13T12:06:40;7.45;;;3.90;;
52360;SDS011;38294;42.966;1.608;2023-02-13T12:09:22;7.65;;;4.18;;
52360;SDS011;38294;42.966;1.608;2023-02-13T12:11:49;10.55;;;4.32;;
52360;SDS011;38294;42.966;1.608;2023-02-13T12:14:29;6.72;;;4.32;;
52360;SDS011;38294;42.966;1.608;2023-02-13T12:19:44;7.07;;;4.20;;
52360;SDS011;38294;42.966;1.608;2023-02-13T12:28:00;6.43;;;3.58;;
52360;SDS011;38294;42.966;1.608;2023-02-13T12:36:18;4.65;;;3.42;;
52360;SDS011;38294;42.966;1.608;2023-02-13T12:39:08;5.85;;;3.80;;
52360;SDS011;38294;42.966;1.608;2023-02-13T12:47:25;6.15;;;3.67;;
52360;SDS011;38294;42.966;1.608;2023-02-13T12:52:51;5.32;;;3.30;;
52360;SDS011;38294;42.966;1.608;2023-02-13T13:14:26;5.15;;;3.05;;
52360;SDS011;38294;42.966;1.608;2023-02-13T13:22:29;4.93;;;3.35;;
52360;SDS011;38294;42.966;1.608;2023-02-13T13:28:07;5.88;;;3.10;;
52360;SDS011;38294;42.966;1.608;2023-02-13T13:30:38;7.35;;;3.55;;
52360;SDS011;38294;42.966;1.608;2023-02-13T13:33:16;4.68;;;3.40;;
52360;SDS011;38294;42.966;1.608;2023-02-13T13:35:45;6.85;;;3.60;;
52360;SDS011;38294;42.966;1.608;2023-02-13T13:41:11;4.13;;;2.92;;
52360;SDS011;38294;42.966;1.608;2023-02-13T13:46:20;5.25;;;3.30;;
52360;SDS011;38294;42.966;1.608;2023-02-13T13:51:51;4.80;;;3.42;;
52360;SDS011;38294;42.966;1.608;2023-02-13T13:54:17;7.55;;;3.40;;
52360;SDS011;38294;42.966;1.608;2023-02-13T14:07:33;5.30;;;3.75;;
52360;SDS011;38294;42.966;1.608;2023-02-13T14:10:05;4.85;;;3.45;;
52360;SDS011;38294;42.966;1.608;2023-02-13T14:28:53;5.07;;;3.53;;
52360;SDS011;38294;42.966;1.608;2023-02-13T14:34:35;7.55;;;3.78;;
52360;SDS011;38294;42.966;1.608;2023-02-13T14:37:11;7.85;;;4.03;;
52360;SDS011;38294;42.966;1.608;2023-02-13T14:40:11;7.43;;;3.60;;
52360;SDS011;38294;42.966;1.608;2023-02-13T14:42:53;4.55;;;3.45;;
52360;SDS011;38294;42.966;1.608;2023-02-13T14:45:21;3.63;;;2.70;;
52360;SDS011;38294;42.966;1.608;2023-02-13T14:50:22;9.18;;;4.68;;
52360;SDS011;38294;42.966;1.608;2023-02-13T14:52:52;6.15;;;4.47;;
52360;SDS011;38294;42.966;1.608;2023-02-13T14:57:57;4.38;;;2.80;;
52360;SDS011;38294;42.966;1.608;2023-02-13T15:00:53;4.20;;;3.03;;
52360;SDS011;38294;42.966;1.608;2023-02-13T15:03:24;6.40;;;3.85;;
52360;SDS011;38294;42.966;1.608;2023-02-13T15:06:02;11.68;;;4.40;;
52360;SDS011;38294;42.966;1.608;2023-02-13T15:08:47;8.82;;;3.78;;
52360;SDS011;38294;42.966;1.608;2023-02-13T15:11:30;5.80;;;4.22;;
52360;SDS011;38294;42.966;1.608;2023-02-13T15:19:31;9.88;;;4.00;;
52360;SDS011;38294;42.966;1.608;2023-02-13T15:22:02;6.25;;;4.22;;
52360;SDS011;38294;42.966;1.608;2023-02-13T15:24:32;8.57;;;3.80;;
52360;SDS011;38294;42.966;1.608;2023-02-13T15:27:03;5.65;;;4.03;;
52360;SDS011;38294;42.966;1.608;2023-02-13T15:29:31;7.03;;;4.00;;
52360;SDS011;38294;42.966;1.608;2023-02-13T15:32:00;7.72;;;3.92;;
52360;SDS011;38294;42.966;1.608;2023-02-13T15:34:45;7.05;;;4.30;;
52360;SDS011;38294;42.966;1.608;2023-02-13T15:37:22;7.72;;;4.57;;
52360;SDS011;38294;42.966;1.608;2023-02-13T15:39:49;6.28;;;4.20;;
52360;SDS011;38294;42.966;1.608;2023-02-13T15:42:14;6.68;;;4.40;;
52360;SDS011;38294;42.966;1.608;2023-02-13T15:44:42;10.90;;;4.65;;
52360;SDS011;38294;42.966;1.608;2023-02-13T15:47:15;7.15;;;4.95;;
52360;SDS011;38294;42.966;1.608;2023-02-13T15:49:45;8.93;;;5.00;;
52360;SDS011;38294;42.966;1.608;2023-02-13T15:52:28;11.25;;;5.32;;
52360;SDS011;38294;42.966;1.608;2023-02-13T15:54:56;8.38;;;4.82;;
52360;SDS011;38294;42.966;1.608;2023-02-13T15:57:23;11.02;;;5.25;;
52360;SDS011;38294;42.966;1.608;2023-02-13T15:59:51;7.53;;;5.32;;
52360;SDS011;38294;42.966;1.608;2023-02-13T16:02:19;9.45;;;5.68;;
52360;SDS011;38294;42.966;1.608;2023-02-13T16:04:48;7.93;;;5.18;;
52360;SDS011;38294;42.966;1.608;2023-02-13T16:07:16;9.38;;;5.25;;
52360;SDS011;38294;42.966;1.608;2023-02-13T16:09:42;13.05;;;5.28;;
52360;SDS011;38294;42.966;1.608;2023-02-13T16:12:24;7.78;;;5.13;;
52360;SDS011;38294;42.966;1.608;2023-02-13T16:14:53;11.93;;;5.60;;
52360;SDS011;38294;42.966;1.608;2023-02-13T16:17:34;10.23;;;5.30;;
52360;SDS011;38294;42.966;1.608;2023-02-13T16:20:03;9.48;;;5.28;;
52360;SDS011;38294;42.966;1.608;2023-02-13T16:22:51;10.63;;;5.18;;
52360;SDS011;38294;42.966;1.608;2023-02-13T16:25:39;11.20;;;5.32;;
52360;SDS011;38294;42.966;1.608;2023-02-13T16:30:44;11.27;;;5.50;;
52360;SDS011;38294;42.966;1.608;2023-02-13T16:38:24;11.68;;;6.60;;
52360;SDS011;38294;42.966;1.608;2023-02-13T16:53:57;18.88;;;10.18;;
52360;SDS011;38294;42.966;1.608;2023-02-13T16:56:25;13.00;;;7.22;;
52360;SDS011;38294;42.966;1.608;2023-02-13T16:59:05;14.07;;;7.00;;
52360;SDS011;38294;42.966;1.608;2023-02-13T17:07:17;14.27;;;7.50;;
52360;SDS011;38294;42.966;1.608;2023-02-13T17:10:04;14.52;;;7.28;;
52360;SDS011;38294;42.966;1.608;2023-02-13T17:12:34;16.65;;;7.72;;
52360;SDS011;38294;42.966;1.608;2023-02-13T17:15:02;15.02;;;7.97;;
52360;SDS011;38294;42.966;1.608;2023-02-13T17:17:29;13.18;;;7.63;;
52360;SDS011;38294;42.966;1.608;2023-02-13T17:19:56;17.13;;;7.97;;
52360;SDS011;38294;42.966;1.608;2023-02-13T17:22:27;13.43;;;7.45;;
52360;SDS011;38294;42.966;1.608;2023-02-13T17:24:57;9.63;;;6.43;;
52360;SDS011;38294;42.966;1.608;2023-02-13T17:27:24;10.88;;;7.18;;
52360;SDS011;38294;42.966;1.608;2023-02-13T17:29:50;11.35;;;6.72;;
52360;SDS011;38294;42.966;1.608;2023-02-13T17:32:17;15.07;;;6.68;;
52360;SDS011;38294;42.966;1.608;2023-02-13T17:34:45;13.18;;;7.10;;
52360;SDS011;38294;42.966;1.608;2023-02-13T17:37:17;18.08;;;8.73;;
52360;SDS011;38294;42.966;1.608;2023-02-13T17:39:45;16.55;;;8.70;;
52360;SDS011;38294;42.966;1.608;2023-02-13T17:42:15;14.38;;;7.93;;
52360;SDS011;38294;42.966;1.608;2023-02-13T17:44:53;17.70;;;7.88;;
52360;SDS011;38294;42.966;1.608;2023-02-13T17:47:20;12.95;;;7.47;;
52360;SDS011;38294;42.966;1.608;2023-02-13T17:49:46;18.77;;;8.27;;
52360;SDS011;38294;42.966;1.608;2023-02-13T17:52:22;13.32;;;7.05;;
52360;SDS011;38294;42.966;1.608;2023-02-13T17:54:50;12.80;;;6.70;;
52360;SDS011;38294;42.966;1.608;2023-02-13T17:57:16;14.57;;;6.70;;
52360;SDS011;38294;42.966;1.608;2023-02-13T17:59:43;10.48;;;6.35;;
52360;SDS011;38294;42.966;1.608;2023-02-13T18:02:16;12.10;;;5.90;;
52360;SDS011;38294;42.966;1.608;2023-02-13T18:04:42;12.07;;;6.13;;
52360;SDS011;38294;42.966;1.608;2023-02-13T18:07:09;14.45;;;6.85;;
52360;SDS011;38294;42.966;1.608;2023-02-13T18:09:36;13.93;;;7.93;;
52360;SDS011;38294;42.966;1.608;2023-02-13T18:12:01;13.70;;;7.55;;
52360;SDS011;38294;42.966;1.608;2023-02-13T18:14:28;15.55;;;8.30;;
52360;SDS011;38294;42.966;1.608;2023-02-13T18:16:55;14.07;;;7.72;;
52360;SDS011;38294;42.966;1.608;2023-02-13T18:19:21;14.45;;;7.00;;
52360;SDS011;38294;42.966;1.608;2023-02-13T18:21:46;12.88;;;6.70;;
52360;SDS011;38294;42.966;1.608;2023-02-13T18:24:12;10.95;;;5.65;;
52360;SDS011;38294;42.966;1.608;2023-02-13T18:26:37;9.70;;;6.78;;
52360;SDS011;38294;42.966;1.608;2023-02-13T18:29:03;14.80;;;6.97;;
52360;SDS011;38294;42.966;1.608;2023-02-13T18:31:28;15.43;;;7.60;;
52360;SDS011;38294;42.966;1.608;2023-02-13T18:33:54;20.85;;;9.65;;
52360;SDS011;38294;42.966;1.608;2023-02-13T18:36:20;23.02;;;11.25;;
52360;SDS011;38294;42.966;1.608;2023-02-13T18:38:45;25.20;;;12.23;;
52360;SDS011;38294;42.966;1.608;2023-02-13T18:41:11;24.25;;;11.68;;
52360;SDS011;38294;42.966;1.608;2023-02-13T18:43:36;21.02;;;11.50;;
52360;SDS011;38294;42.966;1.608;2023-02-13T18:46:02;24.02;;;10.23;;
52360;SDS011;38294;42.966;1.608;2023-02-13T18:48:29;25.63;;;11.70;;
52360;SDS011;38294;42.966;1.608;2023-02-13T18:50:57;32.20;;;12.32;;
52360;SDS011;38294;42.966;1.608;2023-02-13T18:53:25;25.50;;;11.88;;
52360;SDS011;38294;42.966;1.608;2023-02-13T18:56:01;21.52;;;10.27;;
52360;SDS011;38294;42.966;1.608;2023-02-13T18:58:27;27.33;;;13.55;;
52360;SDS011;38294;42.966;1.608;2023-02-13T19:00:53;34.45;;;13.93;;
52360;SDS011;38294;42.966;1.608;2023-02-13T19:03:18;30.67;;;13.60;;
52360;SDS011;38294;42.966;1.608;2023-02-13T19:05:44;28.30;;;12.85;;
52360;SDS011;38294;42.966;1.608;2023-02-13T19:08:09;32.90;;;13.98;;
52360;SDS011;38294;42.966;1.608;2023-02-13T19:10:35;27.95;;;12.25;;
52360;SDS011;38294;42.966;1.608;2023-02-13T19:13:00;31.85;;;12.65;;
52360;SDS011;38294;42.966;1.608;2023-02-13T19:15:26;24.73;;;12.65;;
52360;SDS011;38294;42.966;1.608;2023-02-13T19:17:51;33.28;;;15.68;;
52360;SDS011;38294;42.966;1.608;2023-02-13T19:20:21;33.35;;;14.43;;
52360;SDS011;38294;42.966;1.608;2023-02-13T19:22:47;28.65;;;13.88;;
52360;SDS011;38294;42.966;1.608;2023-02-13T19:25:12;30.80;;;13.15;;
52360;SDS011;38294;42.966;1.608;2023-02-13T19:27:38;37.03;;;15.10;;
52360;SDS011;38294;42.966;1.608;2023-02-13T19:30:04;30.70;;;15.13;;
52360;SDS011;38294;42.966;1.608;2023-02-13T19:32:31;52.20;;;17.77;;
52360;SDS011;38294;42.966;1.608;2023-02-13T19:34:57;73.28;;;24.95;;
52360;SDS011;38294;42.966;1.608;2023-02-13T19:37:22;41.17;;;17.15;;
52360;SDS011;38294;42.966;1.608;2023-02-13T19:39:48;37.58;;;15.50;;
52360;SDS011;38294;42.966;1.608;2023-02-13T19:42:13;29.92;;;14.98;;
52360;SDS011;38294;42.966;1.608;2023-02-13T19:44:39;28.52;;;14.30;;
52360;SDS011;38294;42.966;1.608;2023-02-13T19:47:04;32.67;;;13.68;;
52360;SDS011;38294;42.966;1.608;2023-02-13T19:49:30;29.67;;;13.77;;
52360;SDS011;38294;42.966;1.608;2023-02-13T19:51:55;31.00;;;14.18;;
52360;SDS011;38294;42.966;1.608;2023-02-13T19:54:21;29.38;;;14.20;;
52360;SDS011;38294;42.966;1.608;2023-02-13T19:56:46;29.63;;;14.20;;
52360;SDS011;38294;42.966;1.608;2023-02-13T19:59:12;40.40;;;15.82;;
52360;SDS011;38294;42.966;1.608;2023-02-13T20:01:38;29.35;;;15.27;;
52360;SDS011;38294;42.966;1.608;2023-02-13T20:04:06;32.80;;;14.57;;
52360;SDS011;38294;42.966;1.608;2023-02-13T20:06:33;30.25;;;14.40;;
52360;SDS011;38294;42.966;1.608;2023-02-13T20:09:01;32.72;;;14.18;;
52360;SDS011;38294;42.966;1.608;2023-02-13T20:11:30;29.17;;;14.45;;
52360;SDS011;38294;42.966;1.608;2023-02-13T20:13:56;25.25;;;14.25;;
52360;SDS011;38294;42.966;1.608;2023-02-13T20:16:25;36.78;;;15.75;;
52360;SDS011;38294;42.966;1.608;2023-02-13T20:18:51;43.20;;;17.70;;
52360;SDS011;38294;42.966;1.608;2023-02-13T20:21:17;35.55;;;17.80;;
52360;SDS011;38294;42.966;1.608;2023-02-13T20:23:46;29.98;;;15.02;;
52360;SDS011;38294;42.966;1.608;2023-02-13T20:26:13;39.63;;;16.92;;
52360;SDS011;38294;42.966;1.608;2023-02-13T20:28:40;33.67;;;16.10;;
52360;SDS011;38294;42.966;1.608;2023-02-13T20:31:08;33.72;;;14.98;;
52360;SDS011;38294;42.966;1.608;2023-02-13T20:33:38;23.98;;;12.73;;
52360;SDS011;38294;42.966;1.608;2023-02-13T20:36:37;29.23;;;14.18;;
52360;SDS011;38294;42.966;1.608;2023-02-13T20:38:57;31.35;;;15.27;;
52360;SDS011;38294;42.966;1.608;2023-02-13T20:41:26;42.40;;;17.98;;
52360;SDS011;38294;42.966;1.608;2023-02-13T20:43:57;37.97;;;17.13;;
52360;SDS011;38294;42.966;1.608;2023-02-13T20:46:24;32.88;;;16.90;;
52360;SDS011;38294;42.966;1.608;2023-02-13T20:48:49;36.00;;;16.20;;
52360;SDS011;38294;42.966;1.608;2023-02-13T20:51:15;37.92;;;16.60;;
52360;SDS011;38294;42.966;1.608;2023-02-13T20:53:42;33.88;;;16.05;;
52360;SDS011;38294;42.966;1.608;2023-02-13T20:56:11;37.60;;;15.55;;
52360;SDS011;38294;42.966;1.608;2023-02-13T20:58:37;30.02;;;13.93;;
52360;SDS011;38294;42.966;1.608;2023-02-13T21:01:25;34.97;;;15.23;;
52360;SDS011;38294;42.966;1.608;2023-02-13T21:03:51;32.55;;;14.48;;
52360;SDS011;38294;42.966;1.608;2023-02-13T21:06:19;38.25;;;17.20;;
52360;SDS011;38294;42.966;1.608;2023-02-13T21:08:47;37.78;;;16.13;;
52360;SDS011;38294;42.966;1.608;2023-02-13T21:11:13;30.40;;;15.55;;
52360;SDS011;38294;42.966;1.608;2023-02-13T21:13:39;31.83;;;15.82;;
52360;SDS011;38294;42.966;1.608;2023-02-13T21:16:05;35.10;;;15.45;;
52360;SDS011;38294;42.966;1.608;2023-02-13T21:18:32;28.80;;;14.35;;
52360;SDS011;38294;42.966;1.608;2023-02-13T21:20:59;32.28;;;14.77;;
52360;SDS011;38294;42.966;1.608;2023-02-13T21:23:24;32.33;;;15.52;;
52360;SDS011;38294;42.966;1.608;2023-02-13T21:25:50;34.08;;;15.13;;
52360;SDS011;38294;42.966;1.608;2023-02-13T21:28:16;32.83;;;15.77;;
52360;SDS011;38294;42.966;1.608;2023-02-13T21:30:41;35.95;;;15.57;;
52360;SDS011;38294;42.966;1.608;2023-02-13T21:33:07;34.45;;;15.57;;
52360;SDS011;38294;42.966;1.608;2023-02-13T21:35:33;34.50;;;14.80;;
